首页
METAR-TAF:

METAR-TAF

机场 :

瑟堡, 法国

纬度: 49-39N, 经度: 001-28W, 海拔: 138米

当前天气观测

该预报发布于32分钟前的06:30 UTC
风速5节,风向
温度 4°C
湿度 100%
气压 1008 hPa
能见度10公里或以上
散云层高于4200英尺
多云层高于6800英尺
阴天层高于18000英尺

METAR: LFRC 170630Z AUTO 18005KT 9999 SCT042 BKN068 OVC180 04/04 Q1008 TEMPO SHRA BKN003

时间: 08:02 (07:02 UTC)

预报

该预报发布于2小时和2分钟前的05:00 UTC
预报有效从17日的 06点(UTC)到 17日的 15点(UTC)
风速3节,风向多变
能见度10公里或以上
散云层高于3000英尺
几率 30% :
短暂存在
从 17日的 06点(UTC)到 17日的 09点(UTC)
能見度: 3000
多云层高于300英尺
轻雾
几率 30% :
短暂存在
从 17日的 06点(UTC)到 17日的 15点(UTC)
能見度: 5000
阵雨

TAF: LFRC 170500Z 1706/1715 VRB03KT 9999 SCT030 PROB30 TEMPO 1706/1709 3000 BR BKN003 PROB30 TEMPO 1706/1715 5000 SHRA

超过4000个机场的气象观测和天气预报(METAR&TAF报告)。

可查询的气象台以黄色和红色小点在地图上表示。

将鼠标移到小点上方,可查看气象台名称。

然后点击查看天气观测和预报。

如需切换地图:点击带黑十字的绿色按钮放大地图;点击带横线的绿色按钮缩小地图;或者点击绿色箭头查看邻近地区的地图。


METAR-TAF: